sensor_id;sensor_type;location;lat;lon;timestamp;pressure;altitude;pressure_sealevel;temperature;humidity
76434;BME280;65265;53.200;6.080;2023-12-29T00:00:40;100275.38;;;9.13;100.00
76434;BME280;65265;53.200;6.080;2023-12-29T00:05:33;100277.22;;;9.41;100.00
76434;BME280;65265;53.200;6.080;2023-12-29T00:10:28;100274.34;;;9.56;100.00
76434;BME280;65265;53.200;6.080;2023-12-29T00:15:21;100276.50;;;9.69;100.00
76434;BME280;65265;53.200;6.080;2023-12-29T00:20:14;100249.31;;;9.70;100.00
76434;BME280;65265;53.200;6.080;2023-12-29T00:25:06;100276.00;;;9.79;100.00
76434;BME280;65265;53.200;6.080;2023-12-29T00:30:02;100268.09;;;9.72;100.00
76434;BME280;65265;53.200;6.080;2023-12-29T00:34:54;100254.16;;;9.62;100.00
76434;BME280;65265;53.200;6.080;2023-12-29T00:39:46;100238.69;;;9.58;100.00
76434;BME280;65265;53.200;6.080;2023-12-29T00:44:38;100253.28;;;9.62;100.00
76434;BME280;65265;53.200;6.080;2023-12-29T00:49:33;100229.66;;;9.44;100.00
76434;BME280;65265;53.200;6.080;2023-12-29T00:54:25;100225.13;;;9.60;100.00
76434;BME280;65265;53.200;6.080;2023-12-29T00:59:19;100218.69;;;9.71;100.00
76434;BME280;65265;53.200;6.080;2023-12-29T01:04:11;100198.94;;;9.66;100.00
76434;BME280;65265;53.200;6.080;2023-12-29T01:09:07;100213.41;;;9.65;100.00
76434;BME280;65265;53.200;6.080;2023-12-29T01:14:02;100196.25;;;9.61;100.00
76434;BME280;65265;53.200;6.080;2023-12-29T01:18:56;100201.16;;;9.55;100.00
76434;BME280;65265;53.200;6.080;2023-12-29T01:23:48;100214.31;;;9.43;100.00
76434;BME280;65265;53.200;6.080;2023-12-29T01:28:43;100201.25;;;9.34;100.00
76434;BME280;65265;53.200;6.080;2023-12-29T01:33:36;100198.69;;;9.34;100.00
76434;BME280;65265;53.200;6.080;2023-12-29T01:38:29;100192.69;;;9.32;100.00
76434;BME280;65265;53.200;6.080;2023-12-29T01:43:21;100182.41;;;9.30;100.00
76434;BME280;65265;53.200;6.080;2023-12-29T01:48:17;100162.91;;;9.32;100.00
76434;BME280;65265;53.200;6.080;2023-12-29T01:53:10;100151.91;;;9.33;100.00
76434;BME280;65265;53.200;6.080;2023-12-29T01:58:03;100151.50;;;9.46;100.00
76434;BME280;65265;53.200;6.080;2023-12-29T02:02:55;100148.94;;;9.46;100.00
76434;BME280;65265;53.200;6.080;2023-12-29T02:07:52;100175.72;;;9.58;100.00
76434;BME280;65265;53.200;6.080;2023-12-29T02:12:46;100160.22;;;9.52;100.00
76434;BME280;65265;53.200;6.080;2023-12-29T02:17:43;100185.34;;;9.41;100.00
76434;BME280;65265;53.200;6.080;2023-12-29T02:22:37;100181.00;;;9.38;100.00
76434;BME280;65265;53.200;6.080;2023-12-29T02:27:43;100188.16;;;9.25;100.00
76434;BME280;65265;53.200;6.080;2023-12-29T02:32:39;100191.38;;;9.19;100.00
76434;BME280;65265;53.200;6.080;2023-12-29T02:37:36;100190.56;;;9.20;100.00
76434;BME280;65265;53.200;6.080;2023-12-29T02:42:29;100190.78;;;9.26;100.00
76434;BME280;65265;53.200;6.080;2023-12-29T02:47:22;100181.66;;;9.33;100.00
76434;BME280;65265;53.200;6.080;2023-12-29T02:52:15;100181.75;;;9.36;100.00
76434;BME280;65265;53.200;6.080;2023-12-29T02:57:07;100184.22;;;9.33;100.00
76434;BME280;65265;53.200;6.080;2023-12-29T03:01:59;100175.22;;;9.43;100.00
76434;BME280;65265;53.200;6.080;2023-12-29T03:06:54;100183.72;;;9.44;100.00
76434;BME280;65265;53.200;6.080;2023-12-29T03:11:46;100183.72;;;9.43;100.00
76434;BME280;65265;53.200;6.080;2023-12-29T03:16:38;100200.09;;;9.49;100.00
76434;BME280;65265;53.200;6.080;2023-12-29T03:21:31;100179.81;;;9.53;100.00
76434;BME280;65265;53.200;6.080;2023-12-29T03:26:25;100186.72;;;9.56;100.00
76434;BME280;65265;53.200;6.080;2023-12-29T03:31:18;100192.28;;;9.44;100.00
76434;BME280;65265;53.200;6.080;2023-12-29T03:36:11;100184.38;;;9.37;100.00
76434;BME280;65265;53.200;6.080;2023-12-29T03:41:04;100180.78;;;9.32;100.00
76434;BME280;65265;53.200;6.080;2023-12-29T03:46:00;100173.13;;;9.32;100.00
76434;BME280;65265;53.200;6.080;2023-12-29T03:50:53;100189.06;;;9.25;100.00
76434;BME280;65265;53.200;6.080;2023-12-29T03:55:46;100194.81;;;9.20;100.00
76434;BME280;65265;53.200;6.080;2023-12-29T04:00:38;100180.19;;;9.16;100.00
76434;BME280;65265;53.200;6.080;2023-12-29T04:05:35;100175.09;;;9.16;100.00
76434;BME280;65265;53.200;6.080;2023-12-29T04:10:28;100168.31;;;9.16;100.00
76434;BME280;65265;53.200;6.080;2023-12-29T04:15:20;100187.25;;;9.23;100.00
76434;BME280;65265;53.200;6.080;2023-12-29T04:20:14;100177.00;;;9.21;100.00
76434;BME280;65265;53.200;6.080;2023-12-29T04:25:08;100186.44;;;9.24;100.00
76434;BME280;65265;53.200;6.080;2023-12-29T04:30:03;100188.81;;;9.19;100.00
76434;BME280;65265;53.200;6.080;2023-12-29T04:34:55;100192.94;;;9.16;100.00
76434;BME280;65265;53.200;6.080;2023-12-29T04:39:49;100207.56;;;9.20;100.00
76434;BME280;65265;53.200;6.080;2023-12-29T04:44:43;100196.56;;;9.21;100.00
76434;BME280;65265;53.200;6.080;2023-12-29T04:49:36;100196.44;;;9.18;100.00
76434;BME280;65265;53.200;6.080;2023-12-29T04:54:29;100203.78;;;9.09;100.00
76434;BME280;65265;53.200;6.080;2023-12-29T04:59:22;100211.19;;;9.26;100.00
76434;BME280;65265;53.200;6.080;2023-12-29T05:04:16;100210.31;;;9.26;100.00
76434;BME280;65265;53.200;6.080;2023-12-29T05:09:09;100225.53;;;9.23;100.00
76434;BME280;65265;53.200;6.080;2023-12-29T05:14:03;100217.72;;;9.18;100.00
76434;BME280;65265;53.200;6.080;2023-12-29T05:18:56;100214.41;;;9.21;100.00
76434;BME280;65265;53.200;6.080;2023-12-29T05:23:51;100217.16;;;9.27;100.00
76434;BME280;65265;53.200;6.080;2023-12-29T05:28:44;100226.56;;;9.28;100.00
76434;BME280;65265;53.200;6.080;2023-12-29T05:33:38;100228.16;;;9.24;100.00
76434;BME280;65265;53.200;6.080;2023-12-29T05:38:31;100221.34;;;9.25;100.00
76434;BME280;65265;53.200;6.080;2023-12-29T05:43:27;100218.59;;;9.19;100.00
76434;BME280;65265;53.200;6.080;2023-12-29T05:48:20;100210.13;;;9.20;100.00
76434;BME280;65265;53.200;6.080;2023-12-29T05:53:12;100213.44;;;9.17;100.00
76434;BME280;65265;53.200;6.080;2023-12-29T05:58:05;100230.63;;;9.23;100.00
76434;BME280;65265;53.200;6.080;2023-12-29T06:02:59;100230.19;;;9.34;100.00
76434;BME280;65265;53.200;6.080;2023-12-29T06:07:54;100225.69;;;9.27;100.00
76434;BME280;65265;53.200;6.080;2023-12-29T06:12:46;100216.84;;;9.18;100.00
76434;BME280;65265;53.200;6.080;2023-12-29T06:17:39;100198.56;;;9.06;100.00
76434;BME280;65265;53.200;6.080;2023-12-29T06:22:38;100217.34;;;9.08;100.00
76434;BME280;65265;53.200;6.080;2023-12-29T06:27:31;100201.22;;;9.09;100.00
76434;BME280;65265;53.200;6.080;2023-12-29T06:32:28;100203.06;;;9.13;100.00
76434;BME280;65265;53.200;6.080;2023-12-29T06:37:21;100210.22;;;9.23;100.00
76434;BME280;65265;53.200;6.080;2023-12-29T06:42:17;100221.31;;;9.23;100.00
76434;BME280;65265;53.200;6.080;2023-12-29T06:47:12;100206.94;;;9.27;100.00
76434;BME280;65265;53.200;6.080;2023-12-29T06:52:05;100207.06;;;9.30;100.00
76434;BME280;65265;53.200;6.080;2023-12-29T06:56:57;100211.94;;;9.24;100.00
76434;BME280;65265;53.200;6.080;2023-12-29T07:01:52;100224.03;;;9.28;100.00
76434;BME280;65265;53.200;6.080;2023-12-29T07:06:45;100201.75;;;9.24;100.00
76434;BME280;65265;53.200;6.080;2023-12-29T07:11:37;100212.88;;;9.26;100.00
76434;BME280;65265;53.200;6.080;2023-12-29T07:16:31;100222.88;;;9.20;100.00
76434;BME280;65265;53.200;6.080;2023-12-29T07:21:25;100222.72;;;9.15;100.00
76434;BME280;65265;53.200;6.080;2023-12-29T07:26:20;100223.69;;;9.19;100.00
76434;BME280;65265;53.200;6.080;2023-12-29T07:31:14;100211.44;;;9.09;100.00
76434;BME280;65265;53.200;6.080;2023-12-29T07:36:07;100225.53;;;9.23;100.00
76434;BME280;65265;53.200;6.080;2023-12-29T07:41:03;100222.91;;;9.21;100.00
76434;BME280;65265;53.200;6.080;2023-12-29T07:45:56;100218.84;;;9.26;100.00
76434;BME280;65265;53.200;6.080;2023-12-29T07:50:48;100226.56;;;9.28;100.00
76434;BME280;65265;53.200;6.080;2023-12-29T07:55:43;100230.44;;;9.17;100.00
76434;BME280;65265;53.200;6.080;2023-12-29T08:00:39;100228.00;;;9.21;100.00
76434;BME280;65265;53.200;6.080;2023-12-29T08:05:31;100241.59;;;9.20;100.00
76434;BME280;65265;53.200;6.080;2023-12-29T08:10:24;100250.94;;;9.20;100.00
76434;BME280;65265;53.200;6.080;2023-12-29T08:15:18;100237.44;;;9.22;100.00
76434;BME280;65265;53.200;6.080;2023-12-29T08:20:12;100247.13;;;9.09;100.00
76434;BME280;65265;53.200;6.080;2023-12-29T08:25:05;100253.41;;;9.18;100.00
76434;BME280;65265;53.200;6.080;2023-12-29T08:29:58;100238.19;;;9.20;100.00
76434;BME280;65265;53.200;6.080;2023-12-29T08:34:50;100237.03;;;9.12;100.00
76434;BME280;65265;53.200;6.080;2023-12-29T08:39:46;100234.41;;;9.10;100.00
76434;BME280;65265;53.200;6.080;2023-12-29T08:44:38;100222.97;;;8.99;100.00
76434;BME280;65265;53.200;6.080;2023-12-29T08:49:31;100234.75;;;8.96;100.00
76434;BME280;65265;53.200;6.080;2023-12-29T08:54:24;100253.19;;;8.89;100.00
76434;BME280;65265;53.200;6.080;2023-12-29T08:59:18;100253.19;;;8.89;100.00
76434;BME280;65265;53.200;6.080;2023-12-29T09:04:11;100237.25;;;8.94;100.00
76434;BME280;65265;53.200;6.080;2023-12-29T09:09:03;100262.81;;;8.96;100.00
76434;BME280;65265;53.200;6.080;2023-12-29T09:13:56;100253.44;;;8.95;100.00
76434;BME280;65265;53.200;6.080;2023-12-29T09:18:50;100250.25;;;9.00;100.00
76434;BME280;65265;53.200;6.080;2023-12-29T09:23:41;100247.97;;;9.08;100.00
76434;BME280;65265;53.200;6.080;2023-12-29T09:28:34;100247.56;;;9.21;100.00
76434;BME280;65265;53.200;6.080;2023-12-29T09:33:27;100236.72;;;9.26;100.00
76434;BME280;65265;53.200;6.080;2023-12-29T09:38:22;100240.72;;;9.20;100.00
76434;BME280;65265;53.200;6.080;2023-12-29T09:43:15;100259.22;;;9.38;100.00
76434;BME280;65265;53.200;6.080;2023-12-29T09:48:11;100252.94;;;9.28;100.00
76434;BME280;65265;53.200;6.080;2023-12-29T09:53:05;100239.19;;;9.25;100.00
76434;BME280;65265;53.200;6.080;2023-12-29T09:58:00;100247.25;;;9.35;100.00
76434;BME280;65265;53.200;6.080;2023-12-29T10:02:54;100239.44;;;9.31;100.00
76434;BME280;65265;53.200;6.080;2023-12-29T10:07:48;100224.03;;;9.28;100.00
76434;BME280;65265;53.200;6.080;2023-12-29T10:12:41;100238.88;;;9.16;100.00
76434;BME280;65265;53.200;6.080;2023-12-29T10:17:44;100256.25;;;9.26;100.00
76434;BME280;65265;53.200;6.080;2023-12-29T10:22:42;100256.69;;;9.14;100.00
76434;BME280;65265;53.200;6.080;2023-12-29T10:27:37;100247.03;;;9.06;100.00
76434;BME280;65265;53.200;6.080;2023-12-29T10:32:29;100262.91;;;8.99;100.00
76434;BME280;65265;53.200;6.080;2023-12-29T10:37:24;100235.44;;;8.92;100.00
76434;BME280;65265;53.200;6.080;2023-12-29T10:42:18;100251.72;;;8.95;100.00
76434;BME280;65265;53.200;6.080;2023-12-29T10:47:11;100263.28;;;8.86;100.00
76434;BME280;65265;53.200;6.080;2023-12-29T10:52:10;100273.78;;;8.71;100.00
76434;BME280;65265;53.200;6.080;2023-12-29T10:57:09;100265.84;;;8.64;100.00
76434;BME280;65265;53.200;6.080;2023-12-29T11:02:02;100280.38;;;8.66;100.00
76434;BME280;65265;53.200;6.080;2023-12-29T11:06:55;100270.31;;;8.69;100.00
76434;BME280;65265;53.200;6.080;2023-12-29T11:11:47;100286.72;;;8.77;100.00
76434;BME280;65265;53.200;6.080;2023-12-29T11:16:43;100286.69;;;8.76;100.00
76434;BME280;65265;53.200;6.080;2023-12-29T11:21:37;100310.38;;;8.73;100.00
76434;BME280;65265;53.200;6.080;2023-12-29T11:26:31;100298.00;;;8.82;100.00
76434;BME280;65265;53.200;6.080;2023-12-29T11:31:23;100302.66;;;8.94;100.00
76434;BME280;65265;53.200;6.080;2023-12-29T11:36:20;100292.81;;;9.03;100.00
76434;BME280;65265;53.200;6.080;2023-12-29T11:41:21;100275.47;;;9.16;100.00
76434;BME280;65265;53.200;6.080;2023-12-29T11:46:32;100294.84;;;9.35;100.00
76434;BME280;65265;53.200;6.080;2023-12-29T11:51:33;100272.78;;;9.37;100.00
76434;BME280;65265;53.200;6.080;2023-12-29T11:56:30;100276.50;;;9.44;100.00
76434;BME280;65265;53.200;6.080;2023-12-29T12:01:35;100292.72;;;9.46;100.00
76434;BME280;65265;53.200;6.080;2023-12-29T12:06:39;100282.19;;;9.38;100.00
76434;BME280;65265;53.200;6.080;2023-12-29T12:11:44;100294.88;;;9.13;100.00
76434;BME280;65265;53.200;6.080;2023-12-29T12:16:49;100304.19;;;8.89;100.00
76434;BME280;65265;53.200;6.080;2023-12-29T12:21:46;100328.59;;;8.82;100.00
76434;BME280;65265;53.200;6.080;2023-12-29T12:26:40;100316.69;;;8.83;100.00
76434;BME280;65265;53.200;6.080;2023-12-29T12:31:32;100321.31;;;8.71;100.00
76434;BME280;65265;53.200;6.080;2023-12-29T12:36:26;100328.28;;;8.53;100.00
76434;BME280;65265;53.200;6.080;2023-12-29T12:41:26;100349.09;;;8.43;100.00
76434;BME280;65265;53.200;6.080;2023-12-29T12:46:21;100353.13;;;8.38;100.00
76434;BME280;65265;53.200;6.080;2023-12-29T12:51:14;100338.31;;;8.28;100.00
76434;BME280;65265;53.200;6.080;2023-12-29T12:56:07;100328.53;;;8.18;100.00
76434;BME280;65265;53.200;6.080;2023-12-29T13:01:02;100349.97;;;8.23;100.00
76434;BME280;65265;53.200;6.080;2023-12-29T13:05:55;100335.50;;;8.22;100.00
76434;BME280;65265;53.200;6.080;2023-12-29T13:10:48;100339.88;;;8.24;100.00
76434;BME280;65265;53.200;6.080;2023-12-29T13:15:47;100335.75;;;8.28;100.00
76434;BME280;65265;53.200;6.080;2023-12-29T13:20:47;100338.34;;;8.29;100.00
76434;BME280;65265;53.200;6.080;2023-12-29T13:25:43;100351.91;;;8.28;100.00
76434;BME280;65265;53.200;6.080;2023-12-29T13:30:36;100356.00;;;8.25;100.00
76434;BME280;65265;53.200;6.080;2023-12-29T13:35:34;100347.00;;;8.14;100.00
76434;BME280;65265;53.200;6.080;2023-12-29T13:40:38;100335.22;;;8.16;100.00
76434;BME280;65265;53.200;6.080;2023-12-29T13:45:34;100339.72;;;8.21;100.00
76434;BME280;65265;53.200;6.080;2023-12-29T13:50:29;100318.19;;;8.15;100.00
76434;BME280;65265;53.200;6.080;2023-12-29T13:55:22;100322.84;;;8.23;100.00
76434;BME280;65265;53.200;6.080;2023-12-29T14:00:20;100319.41;;;8.23;100.00
76434;BME280;65265;53.200;6.080;2023-12-29T14:05:19;100330.34;;;8.20;100.00
76434;BME280;65265;53.200;6.080;2023-12-29T14:10:13;100331.41;;;8.25;100.00
76434;BME280;65265;53.200;6.080;2023-12-29T14:15:06;100331.34;;;8.24;100.00
76434;BME280;65265;53.200;6.080;2023-12-29T14:20:04;100326.72;;;8.15;100.00
76434;BME280;65265;53.200;6.080;2023-12-29T14:25:01;100335.22;;;8.16;100.00
76434;BME280;65265;53.200;6.080;2023-12-29T14:29:54;100340.28;;;8.16;100.00
76434;BME280;65265;53.200;6.080;2023-12-29T14:34:47;100340.06;;;8.10;100.00
76434;BME280;65265;53.200;6.080;2023-12-29T14:39:49;100346.00;;;8.10;100.00
76434;BME280;65265;53.200;6.080;2023-12-29T14:44:41;100354.66;;;8.14;100.00
76434;BME280;65265;53.200;6.080;2023-12-29T14:49:33;100344.41;;;8.12;100.00
76434;BME280;65265;53.200;6.080;2023-12-29T14:54:25;100345.56;;;8.19;100.00
76434;BME280;65265;53.200;6.080;2023-12-29T14:59:19;100343.94;;;8.21;100.00
76434;BME280;65265;53.200;6.080;2023-12-29T15:04:11;100341.34;;;8.19;100.00
76434;BME280;65265;53.200;6.080;2023-12-29T15:09:05;100335.09;;;8.13;100.00
76434;BME280;65265;53.200;6.080;2023-12-29T15:14:01;100333.03;;;8.23;100.00
76434;BME280;65265;53.200;6.080;2023-12-29T15:18:55;100315.25;;;8.25;100.00
76434;BME280;65265;53.200;6.080;2023-12-29T15:23:48;100317.94;;;8.28;100.00
76434;BME280;65265;53.200;6.080;2023-12-29T15:28:41;100308.38;;;8.22;100.00
76434;BME280;65265;53.200;6.080;2023-12-29T15:33:34;100312.06;;;8.30;100.00
76434;BME280;65265;53.200;6.080;2023-12-29T15:38:28;100307.75;;;8.28;100.00
76434;BME280;65265;53.200;6.080;2023-12-29T15:43:23;100310.16;;;8.25;100.00
76434;BME280;65265;53.200;6.080;2023-12-29T15:48:16;100309.09;;;8.20;100.00
76434;BME280;65265;53.200;6.080;2023-12-29T15:53:09;100316.25;;;8.28;100.00
76434;BME280;65265;53.200;6.080;2023-12-29T15:58:03;100312.47;;;8.19;100.00
76434;BME280;65265;53.200;6.080;2023-12-29T16:02:55;100311.16;;;8.28;100.00
76434;BME280;65265;53.200;6.080;2023-12-29T16:07:48;100317.88;;;8.26;100.00
76434;BME280;65265;53.200;6.080;2023-12-29T16:12:40;100299.97;;;8.25;100.00
76434;BME280;65265;53.200;6.080;2023-12-29T16:17:36;100311.06;;;8.27;100.00
76434;BME280;65265;53.200;6.080;2023-12-29T16:22:27;100296.59;;;8.26;100.00
76434;BME280;65265;53.200;6.080;2023-12-29T16:27:19;100298.97;;;8.21;100.00
76434;BME280;65265;53.200;6.080;2023-12-29T16:32:19;100288.50;;;8.15;100.00
76434;BME280;65265;53.200;6.080;2023-12-29T16:37:14;100285.38;;;8.21;100.00
76434;BME280;65265;53.200;6.080;2023-12-29T16:42:06;100266.31;;;8.13;100.00
76434;BME280;65265;53.200;6.080;2023-12-29T16:46:58;100263.97;;;8.17;100.00
76434;BME280;65265;53.200;6.080;2023-12-29T16:51:53;100263.56;;;8.07;100.00
76434;BME280;65265;53.200;6.080;2023-12-29T16:56:47;100266.22;;;8.10;100.00
76434;BME280;65265;53.200;6.080;2023-12-29T17:01:39;100268.66;;;8.07;100.00
76434;BME280;65265;53.200;6.080;2023-12-29T17:06:32;100257.50;;;8.05;100.00
76434;BME280;65265;53.200;6.080;2023-12-29T17:11:25;100268.66;;;8.07;98.39
76434;BME280;65265;53.200;6.080;2023-12-29T17:16:19;100273.38;;;7.98;98.84
76434;BME280;65265;53.200;6.080;2023-12-29T17:21:15;100258.41;;;7.85;98.56
76434;BME280;65265;53.200;6.080;2023-12-29T17:26:10;100263.91;;;7.95;97.80
76434;BME280;65265;53.200;6.080;2023-12-29T17:31:05;100260.81;;;7.82;98.84
76434;BME280;65265;53.200;6.080;2023-12-29T17:35:59;100275.03;;;7.77;100.00
76434;BME280;65265;53.200;6.080;2023-12-29T17:40:51;100274.50;;;7.84;100.00
76434;BME280;65265;53.200;6.080;2023-12-29T17:45:44;100281.25;;;7.83;100.00
76434;BME280;65265;53.200;6.080;2023-12-29T17:50:36;100282.41;;;7.71;100.00
76434;BME280;65265;53.200;6.080;2023-12-29T17:55:31;100295.56;;;7.61;100.00
76434;BME280;65265;53.200;6.080;2023-12-29T18:00:24;100302.03;;;7.54;100.00
76434;BME280;65265;53.200;6.080;2023-12-29T18:05:16;100304.81;;;7.40;100.00
76434;BME280;65265;53.200;6.080;2023-12-29T18:10:09;100327.97;;;7.46;100.00
76434;BME280;65265;53.200;6.080;2023-12-29T18:15:05;100320.63;;;7.33;100.00
76434;BME280;65265;53.200;6.080;2023-12-29T18:20:01;100323.03;;;7.30;100.00
76434;BME280;65265;53.200;6.080;2023-12-29T18:24:53;100343.50;;;7.33;100.00
76434;BME280;65265;53.200;6.080;2023-12-29T18:29:46;100338.00;;;7.24;100.00
76434;BME280;65265;53.200;6.080;2023-12-29T18:34:40;100344.22;;;7.11;100.00
76434;BME280;65265;53.200;6.080;2023-12-29T18:39:33;100354.03;;;7.04;100.00
76434;BME280;65265;53.200;6.080;2023-12-29T18:44:27;100346.94;;;6.97;100.00
76434;BME280;65265;53.200;6.080;2023-12-29T18:49:20;100348.38;;;6.92;100.00
76434;BME280;65265;53.200;6.080;2023-12-29T18:54:15;100353.56;;;6.94;100.00
76434;BME280;65265;53.200;6.080;2023-12-29T18:59:07;100371.00;;;6.86;100.00
76434;BME280;65265;53.200;6.080;2023-12-29T19:04:03;100372.66;;;6.86;100.00
76434;BME280;65265;53.200;6.080;2023-12-29T19:08:56;100377.28;;;6.94;100.00
76434;BME280;65265;53.200;6.080;2023-12-29T19:13:51;100389.06;;;6.92;100.00
76434;BME280;65265;53.200;6.080;2023-12-29T19:18:44;100374.91;;;6.97;100.00
76434;BME280;65265;53.200;6.080;2023-12-29T19:23:36;100369.81;;;6.97;100.00
76434;BME280;65265;53.200;6.080;2023-12-29T19:28:28;100375.84;;;6.99;100.00
76434;BME280;65265;53.200;6.080;2023-12-29T19:33:22;100385.34;;;7.03;100.00
76434;BME280;65265;53.200;6.080;2023-12-29T19:38:15;100386.16;;;7.02;100.00
76434;BME280;65265;53.200;6.080;2023-12-29T19:43:08;100393.13;;;7.06;100.00
76434;BME280;65265;53.200;6.080;2023-12-29T19:48:00;100382.81;;;7.03;100.00
76434;BME280;65265;53.200;6.080;2023-12-29T19:52:57;100399.97;;;7.07;100.00
76434;BME280;65265;53.200;6.080;2023-12-29T19:57:48;100396.31;;;7.02;100.00
76434;BME280;65265;53.200;6.080;2023-12-29T20:02:42;100401.25;;;6.99;100.00
76434;BME280;65265;53.200;6.080;2023-12-29T20:07:38;100409.75;;;6.99;100.00
76434;BME280;65265;53.200;6.080;2023-12-29T20:12:33;100414.69;;;6.97;100.00
76434;BME280;65265;53.200;6.080;2023-12-29T20:17:26;100411.13;;;6.93;100.00
76434;BME280;65265;53.200;6.080;2023-12-29T20:22:20;100407.66;;;6.91;100.00
76434;BME280;65265;53.200;6.080;2023-12-29T20:27:15;100405.66;;;6.84;100.00
76434;BME280;65265;53.200;6.080;2023-12-29T20:32:09;100408.38;;;6.89;100.00
76434;BME280;65265;53.200;6.080;2023-12-29T20:37:02;100389.06;;;6.92;100.00
76434;BME280;65265;53.200;6.080;2023-12-29T20:41:54;100387.44;;;6.94;100.00
76434;BME280;65265;53.200;6.080;2023-12-29T20:46:46;100378.03;;;6.92;100.00
76434;BME280;65265;53.200;6.080;2023-12-29T20:51:40;100385.44;;;6.87;100.00
76434;BME280;65265;53.200;6.080;2023-12-29T20:56:33;100376.59;;;6.79;100.00
76434;BME280;65265;53.200;6.080;2023-12-29T21:01:27;100370.66;;;6.79;100.00
76434;BME280;65265;53.200;6.080;2023-12-29T21:06:19;100363.06;;;6.80;100.00
76434;BME280;65265;53.200;6.080;2023-12-29T21:11:17;100364.25;;;6.69;100.00
76434;BME280;65265;53.200;6.080;2023-12-29T21:16:15;100367.59;;;6.68;100.00
76434;BME280;65265;53.200;6.080;2023-12-29T21:21:07;100361.00;;;6.72;100.00
76434;BME280;65265;53.200;6.080;2023-12-29T21:25:59;100367.09;;;6.75;100.00
76434;BME280;65265;53.200;6.080;2023-12-29T21:30:55;100379.94;;;6.78;100.00
76434;BME280;65265;53.200;6.080;2023-12-29T21:35:48;100403.72;;;6.80;100.00
76434;BME280;65265;53.200;6.080;2023-12-29T21:40:41;100397.06;;;6.82;100.00
76434;BME280;65265;53.200;6.080;2023-12-29T21:45:34;100385.16;;;6.81;100.00
76434;BME280;65265;53.200;6.080;2023-12-29T21:50:30;100395.91;;;6.76;100.00
76434;BME280;65265;53.200;6.080;2023-12-29T21:55:22;100387.69;;;6.64;100.00
76434;BME280;65265;53.200;6.080;2023-12-29T22:00:14;100428.56;;;6.68;100.00
76434;BME280;65265;53.200;6.080;2023-12-29T22:05:07;100450.59;;;6.68;100.00
76434;BME280;65265;53.200;6.080;2023-12-29T22:10:08;100450.16;;;6.43;100.00
76434;BME280;65265;53.200;6.080;2023-12-29T22:15:01;100439.59;;;6.18;100.00
76434;BME280;65265;53.200;6.080;2023-12-29T22:19:54;100442.84;;;6.15;100.00
76434;BME280;65265;53.200;6.080;2023-12-29T22:24:47;100445.50;;;6.01;100.00
76434;BME280;65265;53.200;6.080;2023-12-29T22:29:43;100443.56;;;5.97;100.00
76434;BME280;65265;53.200;6.080;2023-12-29T22:34:40;100444.28;;;5.78;100.00
76434;BME280;65265;53.200;6.080;2023-12-29T22:39:34;100461.41;;;5.82;100.00
76434;BME280;65265;53.200;6.080;2023-12-29T22:44:28;100462.81;;;5.77;100.00
76434;BME280;65265;53.200;6.080;2023-12-29T22:49:23;100462.41;;;5.84;100.00
76434;BME280;65265;53.200;6.080;2023-12-29T22:54:15;100470.25;;;5.89;100.00
76434;BME280;65265;53.200;6.080;2023-12-29T22:59:08;100478.72;;;5.89;100.00
76434;BME280;65265;53.200;6.080;2023-12-29T23:04:00;100495.13;;;5.96;100.00
76434;BME280;65265;53.200;6.080;2023-12-29T23:08:57;100487.06;;;6.03;100.00
76434;BME280;65265;53.200;6.080;2023-12-29T23:13:50;100491.78;;;5.97;100.00
76434;BME280;65265;53.200;6.080;2023-12-29T23:18:44;100499.66;;;6.01;100.00
76434;BME280;65265;53.200;6.080;2023-12-29T23:23:37;100518.34;;;6.03;100.00
76434;BME280;65265;53.200;6.080;2023-12-29T23:28:33;100508.69;;;5.96;100.00
76434;BME280;65265;53.200;6.080;2023-12-29T23:33:25;100517.50;;;6.03;100.00
76434;BME280;65265;53.200;6.080;2023-12-29T23:38:18;100523.94;;;5.96;100.00
76434;BME280;65265;53.200;6.080;2023-12-29T23:43:11;100505.84;;;5.90;100.00
76434;BME280;65265;53.200;6.080;2023-12-29T23:48:06;100515.97;;;5.90;100.00
76434;BME280;65265;53.200;6.080;2023-12-29T23:52:58;100514.94;;;5.87;100.00
76434;BME280;65265;53.200;6.080;2023-12-29T23:57:51;100526.69;;;5.85;100.00
